createdAt,value
2018-12-04T00:01:12.334Z,11.20
2018-12-04T00:03:38.580Z,11.10
2018-12-04T00:06:04.701Z,11.10
2018-12-04T00:08:30.797Z,11.10
2018-12-04T00:10:57.103Z,11.10
2018-12-04T00:13:23.434Z,11.10
2018-12-04T00:15:50.336Z,11.10
2018-12-04T00:18:16.422Z,11.10
2018-12-04T00:20:42.819Z,11.10
2018-12-04T00:23:09.063Z,11.00
2018-12-04T00:25:35.178Z,11.00
2018-12-04T00:28:01.456Z,11.00
2018-12-04T00:30:27.736Z,11.10
2018-12-04T00:32:53.931Z,11.10
2018-12-04T00:35:20.119Z,11.00
2018-12-04T00:37:46.216Z,11.00
2018-12-04T00:40:12.630Z,11.00
2018-12-04T00:42:39.034Z,11.00
2018-12-04T00:45:06.035Z,11.00
2018-12-04T00:47:32.342Z,11.00
2018-12-04T00:49:58.428Z,11.00
2018-12-04T00:52:24.649Z,11.00
2018-12-04T00:54:50.885Z,11.00
2018-12-04T00:57:16.983Z,11.00
2018-12-04T00:59:43.064Z,11.00
2018-12-04T01:02:09.366Z,11.00
2018-12-04T01:04:35.682Z,11.00
2018-12-04T01:07:01.963Z,11.10
2018-12-04T01:09:28.076Z,11.00
2018-12-04T01:11:54.289Z,11.10
2018-12-04T01:14:22.120Z,11.10
2018-12-04T01:16:48.432Z,11.10
2018-12-04T01:19:14.633Z,11.10
2018-12-04T01:21:40.839Z,11.10
2018-12-04T01:24:07.089Z,11.10
2018-12-04T01:26:33.332Z,11.10
2018-12-04T01:28:59.665Z,11.10
2018-12-04T01:31:25.896Z,11.20
2018-12-04T01:33:52.031Z,11.20
2018-12-04T01:36:18.174Z,11.10
2018-12-04T01:38:44.435Z,11.10
2018-12-04T01:41:10.625Z,11.10
2018-12-04T01:43:36.874Z,11.10
2018-12-04T01:46:03.102Z,11.10
2018-12-04T01:48:29.241Z,11.10
2018-12-04T01:50:55.403Z,11.10
2018-12-04T01:53:21.508Z,11.10
2018-12-04T01:55:47.781Z,11.10
2018-12-04T01:58:13.932Z,11.10
2018-12-04T02:00:42.990Z,11.00
2018-12-04T02:03:09.150Z,11.10
2018-12-04T02:05:35.374Z,11.10
2018-12-04T02:08:01.586Z,11.00
2018-12-04T02:10:27.694Z,11.10
2018-12-04T02:12:53.787Z,11.10
2018-12-04T02:15:20.090Z,11.10
2018-12-04T02:17:46.303Z,11.00
2018-12-04T02:20:12.597Z,11.00
2018-12-04T02:22:38.844Z,10.90
2018-12-04T02:25:05.288Z,10.90
2018-12-04T02:27:31.397Z,11.10
2018-12-04T02:29:57.640Z,11.00
2018-12-04T02:32:23.750Z,11.00
2018-12-04T02:34:49.916Z,11.10
2018-12-04T02:37:16.078Z,11.00
2018-12-04T02:39:42.181Z,11.10
2018-12-04T02:42:08.413Z,11.10
2018-12-04T02:44:34.518Z,11.00
2018-12-04T02:47:00.768Z,11.00
2018-12-04T02:49:26.854Z,11.10
2018-12-04T02:51:52.980Z,11.10
2018-12-04T02:54:19.122Z,11.10
2018-12-04T02:56:45.418Z,11.10
2018-12-04T02:59:11.510Z,11.10
2018-12-04T03:01:37.715Z,11.20
2018-12-04T03:04:03.970Z,11.20
2018-12-04T03:06:30.197Z,11.20
2018-12-04T03:08:56.299Z,11.10
2018-12-04T03:11:22.397Z,10.90
2018-12-04T03:13:48.624Z,10.90
2018-12-04T03:16:14.729Z,10.80
2018-12-04T03:18:40.851Z,10.60
2018-12-04T03:21:07.047Z,10.60
2018-12-04T03:23:33.195Z,10.50
2018-12-04T03:25:59.410Z,10.50
2018-12-04T03:28:25.716Z,10.60
2018-12-04T03:30:51.948Z,10.60
2018-12-04T03:33:36.275Z,10.60
2018-12-04T03:36:02.739Z,10.60
2018-12-04T03:38:28.829Z,10.60
2018-12-04T03:40:54.921Z,10.60
2018-12-04T03:43:21.351Z,10.70
2018-12-04T03:45:47.546Z,10.70
2018-12-04T03:48:13.744Z,10.70
2018-12-04T03:50:40.134Z,10.70
2018-12-04T03:53:06.360Z,10.80
2018-12-04T03:55:32.557Z,10.80
2018-12-04T03:57:58.814Z,10.90
2018-12-04T04:00:24.908Z,11.00
2018-12-04T04:02:51.160Z,11.00
2018-12-04T04:05:18.993Z,11.00
2018-12-04T04:07:45.137Z,11.00
2018-12-04T04:10:11.353Z,11.00
2018-12-04T04:12:37.774Z,10.90
2018-12-04T04:15:04.362Z,10.90
2018-12-04T04:17:30.475Z,10.90
2018-12-04T04:19:56.579Z,10.70
2018-12-04T04:22:22.708Z,10.60
2018-12-04T04:24:56.038Z,10.70
2018-12-04T04:27:22.399Z,10.60
2018-12-04T04:29:48.561Z,10.70
2018-12-04T04:32:14.748Z,10.60
2018-12-04T04:34:40.891Z,10.60
2018-12-04T04:37:07.101Z,10.60
2018-12-04T04:39:33.338Z,10.60
2018-12-04T04:41:59.596Z,10.60
2018-12-04T04:44:25.834Z,10.60
2018-12-04T04:46:52.261Z,10.60
2018-12-04T04:49:18.490Z,10.50
2018-12-04T04:51:44.818Z,10.50
2018-12-04T04:54:11.108Z,10.50
2018-12-04T04:56:37.318Z,10.40
2018-12-04T04:59:03.785Z,10.40
2018-12-04T05:01:30.138Z,10.50
2018-12-04T05:03:56.358Z,10.40
2018-12-04T05:06:22.593Z,10.50
2018-12-04T05:08:48.810Z,10.50
2018-12-04T05:11:15.161Z,10.40
2018-12-04T05:13:42.566Z,9.80
2018-12-04T05:16:08.810Z,9.60
2018-12-04T05:18:35.142Z,9.50
2018-12-04T05:21:01.433Z,9.50
2018-12-04T05:23:27.534Z,9.40
2018-12-04T05:25:53.694Z,9.40
2018-12-04T05:28:19.926Z,9.30
2018-12-04T05:30:46.079Z,9.30
2018-12-04T05:33:12.234Z,9.30
2018-12-04T05:35:38.446Z,9.20
2018-12-04T05:38:04.674Z,9.20
2018-12-04T05:40:31.027Z,9.00
2018-12-04T05:42:57.169Z,8.80
2018-12-04T05:45:23.429Z,8.70
2018-12-04T05:47:49.579Z,8.70
2018-12-04T05:50:15.737Z,8.70
2018-12-04T05:52:41.966Z,8.60
2018-12-04T05:55:08.195Z,8.50
2018-12-04T05:57:34.378Z,8.50
2018-12-04T06:00:00.634Z,8.40
2018-12-04T06:02:26.920Z,8.50
2018-12-04T06:04:53.060Z,8.50
2018-12-04T06:07:19.295Z,8.50
2018-12-04T06:09:45.565Z,8.50
2018-12-04T06:12:11.954Z,8.50
2018-12-04T06:14:38.213Z,8.50
2018-12-04T06:17:04.570Z,8.50
2018-12-04T06:19:30.813Z,8.50
2018-12-04T06:21:57.024Z,8.50
2018-12-04T06:24:23.142Z,8.40
2018-12-04T06:26:49.964Z,8.40
2018-12-04T06:29:16.217Z,8.50
2018-12-04T06:34:21.762Z,8.40
2018-12-04T06:36:48.015Z,8.30
2018-12-04T06:39:14.456Z,8.20
2018-12-04T06:41:40.701Z,8.30
2018-12-04T06:44:06.908Z,8.30
2018-12-04T06:46:33.124Z,8.30
2018-12-04T06:48:59.444Z,8.30
2018-12-04T06:51:25.672Z,8.30
2018-12-04T06:53:51.784Z,8.20
2018-12-04T06:56:18.081Z,8.20
2018-12-04T06:58:44.326Z,8.20
2018-12-04T07:01:10.485Z,8.20
2018-12-04T07:03:36.601Z,8.20
2018-12-04T07:06:02.950Z,8.30
2018-12-04T07:08:29.176Z,8.30
2018-12-04T07:10:55.282Z,8.30
2018-12-04T07:13:21.385Z,8.20
2018-12-04T07:15:47.601Z,8.20
2018-12-04T07:18:13.902Z,8.20
2018-12-04T07:20:40.115Z,8.20
2018-12-04T07:23:06.345Z,8.20
2018-12-04T07:25:32.625Z,8.20
2018-12-04T07:27:58.842Z,8.30
2018-12-04T07:30:25.160Z,8.30
2018-12-04T07:32:51.340Z,8.30
2018-12-04T07:35:17.496Z,8.30
2018-12-04T07:37:44.018Z,8.30
2018-12-04T07:40:10.426Z,8.40
2018-12-04T07:42:36.748Z,8.30
2018-12-04T07:45:04.270Z,8.30
2018-12-04T07:47:30.458Z,8.30
2018-12-04T07:49:56.651Z,8.30
2018-12-04T07:52:23.006Z,8.30
2018-12-04T07:54:49.143Z,8.30
2018-12-04T07:57:15.379Z,8.20
2018-12-04T07:59:41.518Z,8.30
2018-12-04T08:02:07.651Z,8.20
2018-12-04T08:04:33.965Z,8.30
2018-12-04T08:07:00.236Z,8.20
2018-12-04T08:09:26.345Z,8.20
2018-12-04T08:11:52.526Z,8.10
2018-12-04T08:14:19.632Z,8.10
2018-12-04T08:16:45.885Z,8.10
2018-12-04T08:19:12.012Z,8.10
2018-12-04T08:21:38.275Z,8.10
2018-12-04T08:24:04.681Z,8.10
2018-12-04T08:26:31.161Z,8.20
2018-12-04T08:28:57.255Z,8.20
2018-12-04T08:31:23.436Z,7.70
2018-12-04T08:33:49.534Z,7.40
2018-12-04T08:36:15.814Z,7.40
2018-12-04T08:38:41.942Z,7.40
2018-12-04T08:41:08.149Z,7.50
2018-12-04T08:43:34.380Z,7.60
2018-12-04T08:46:00.528Z,7.70
2018-12-04T08:48:26.660Z,7.80
2018-12-04T08:50:52.842Z,7.90
2018-12-04T08:53:19.170Z,8.00
2018-12-04T08:55:45.287Z,8.00
2018-12-04T08:58:11.539Z,8.00
2018-12-04T09:00:37.866Z,8.10
2018-12-04T09:03:04.235Z,8.20
2018-12-04T09:05:30.395Z,8.30
2018-12-04T09:07:56.515Z,8.20
2018-12-04T09:10:22.618Z,8.30
2018-12-04T09:12:48.991Z,8.20
2018-12-04T09:15:15.274Z,8.20
2018-12-04T09:17:41.496Z,8.30
2018-12-04T09:20:07.774Z,8.40
2018-12-04T09:22:34.454Z,8.50
2018-12-04T09:25:00.632Z,8.50
2018-12-04T09:27:27.008Z,8.70
2018-12-04T09:29:53.241Z,8.60
2018-12-04T09:32:19.432Z,8.70
2018-12-04T09:34:45.637Z,8.70
2018-12-04T09:37:12.002Z,8.70
2018-12-04T09:39:38.226Z,8.50
2018-12-04T09:42:04.716Z,8.40
2018-12-04T09:44:30.965Z,7.70
2018-12-04T09:46:57.104Z,7.60
2018-12-04T09:49:23.203Z,7.50
2018-12-04T09:51:49.341Z,7.40
2018-12-04T09:54:15.459Z,7.40
2018-12-04T09:56:41.721Z,7.30
2018-12-04T09:59:08.092Z,7.30
2018-12-04T10:01:35.283Z,7.30
2018-12-04T10:04:01.514Z,7.40
2018-12-04T10:06:28.007Z,7.40
2018-12-04T10:08:54.188Z,7.50
2018-12-04T10:11:20.593Z,7.70
2018-12-04T10:13:46.689Z,7.80
2018-12-04T10:16:12.835Z,8.00
2018-12-04T10:18:39.062Z,8.10
2018-12-04T10:21:05.259Z,8.40
2018-12-04T10:23:31.447Z,8.40
2018-12-04T10:25:57.930Z,8.40
2018-12-04T10:28:24.150Z,8.40
2018-12-04T10:30:56.431Z,8.50
2018-12-04T10:33:22.682Z,8.60
2018-12-04T10:35:48.935Z,8.60
2018-12-04T10:38:15.204Z,8.70
2018-12-04T10:47:26.862Z,8.90
2018-12-04T10:49:53.047Z,9.00
2018-12-04T10:52:19.289Z,9.10
2018-12-04T10:54:45.416Z,9.10
2018-12-04T10:57:11.666Z,9.20
2018-12-04T10:59:37.870Z,9.40
2018-12-04T11:02:10.342Z,9.40
2018-12-04T11:04:36.467Z,9.30
2018-12-04T11:07:03.094Z,9.70
2018-12-04T11:09:29.237Z,9.70
2018-12-04T11:11:55.498Z,9.90
2018-12-04T11:14:21.967Z,9.60
2018-12-04T11:16:48.219Z,10.20
2018-12-04T11:19:14.465Z,10.60
2018-12-04T11:21:40.618Z,11.10
2018-12-04T11:24:06.791Z,11.20
2018-12-04T11:26:32.915Z,11.40
2018-12-04T11:28:59.670Z,12.10
2018-12-04T11:31:25.800Z,12.60
2018-12-04T11:33:52.022Z,12.50
2018-12-04T11:36:18.718Z,12.20
2018-12-04T11:38:44.860Z,11.90
2018-12-04T11:41:11.097Z,11.50
2018-12-04T11:43:37.473Z,11.20
2018-12-04T11:46:03.749Z,11.90
2018-12-04T11:48:30.076Z,12.30
2018-12-04T11:51:00.141Z,12.70
2018-12-04T11:53:24.682Z,12.10
2018-12-04T11:55:50.925Z,12.70
2018-12-04T11:58:17.253Z,12.50
2018-12-04T12:00:43.525Z,11.90
2018-12-04T12:03:09.674Z,10.50
2018-12-04T12:05:35.877Z,10.10
2018-12-04T12:08:02.973Z,10.20
2018-12-04T12:10:29.317Z,11.30
2018-12-04T12:13:02.706Z,12.60
2018-12-04T12:15:29.042Z,13.50
2018-12-04T12:17:55.293Z,13.90
2018-12-04T12:20:21.423Z,13.70
2018-12-04T12:22:47.754Z,13.50
2018-12-04T12:25:13.969Z,13.40
2018-12-04T12:27:40.625Z,13.20
2018-12-04T12:30:07.530Z,14.20
2018-12-04T12:32:33.894Z,13.10
2018-12-04T12:35:00.245Z,12.90
2018-12-04T12:37:26.529Z,14.20
2018-12-04T12:39:52.676Z,14.60
2018-12-04T12:42:18.845Z,15.30
2018-12-04T12:47:24.560Z,15.10
2018-12-04T12:49:50.760Z,15.40
2018-12-04T12:52:16.992Z,14.60
2018-12-04T12:57:20.374Z,12.60
2018-12-04T12:59:47.497Z,13.30
2018-12-04T13:02:14.719Z,13.90
2018-12-04T13:04:41.004Z,13.80
2018-12-04T13:07:07.963Z,13.40
2018-12-04T13:09:34.090Z,12.70
2018-12-04T13:12:00.202Z,11.80
2018-12-04T13:14:27.290Z,11.00
2018-12-04T13:16:53.607Z,11.80
2018-12-04T13:19:19.838Z,12.30
2018-12-04T13:21:45.964Z,11.90
2018-12-04T13:24:12.237Z,10.90
2018-12-04T13:26:39.415Z,11.50
2018-12-04T13:29:05.759Z,11.20
2018-12-04T13:31:32.013Z,10.30
2018-12-04T13:33:58.259Z,9.60
2018-12-04T13:36:24.656Z,8.80
2018-12-04T13:38:51.655Z,8.40
2018-12-04T13:41:18.148Z,8.00
2018-12-04T13:43:44.449Z,7.90
2018-12-04T13:46:10.666Z,7.80
2018-12-04T13:48:36.969Z,7.90
2018-12-04T13:51:03.699Z,7.70
2018-12-04T13:53:29.855Z,7.70
2018-12-04T13:55:56.483Z,7.60
2018-12-04T13:58:22.762Z,7.70
2018-12-04T14:00:49.068Z,7.60
2018-12-04T14:03:15.518Z,7.50
2018-12-04T14:05:41.982Z,7.30
2018-12-04T14:08:08.122Z,7.30
2018-12-04T14:10:34.518Z,7.30
2018-12-04T14:13:00.770Z,7.20
2018-12-04T14:15:26.962Z,7.10
2018-12-04T14:17:53.081Z,7.10
2018-12-04T14:20:19.265Z,7.00
2018-12-04T14:22:45.394Z,6.90
2018-12-04T14:25:11.741Z,6.90
2018-12-04T14:27:37.961Z,6.80
2018-12-04T14:30:08.486Z,6.80
2018-12-04T14:32:35.476Z,6.80
2018-12-04T14:35:01.807Z,6.70
2018-12-04T14:37:27.947Z,6.70
2018-12-04T14:39:55.146Z,6.70
2018-12-04T14:42:21.600Z,6.60
2018-12-04T14:44:47.859Z,6.60
2018-12-04T14:47:14.182Z,6.60
2018-12-04T14:49:40.567Z,6.50
2018-12-04T14:52:06.867Z,6.50
2018-12-04T14:54:34.030Z,6.50
2018-12-04T14:57:00.351Z,6.40
2018-12-04T14:59:26.757Z,6.40
2018-12-04T15:01:53.162Z,6.30
2018-12-04T15:04:19.425Z,6.30
2018-12-04T15:06:45.899Z,6.30
2018-12-04T15:09:12.423Z,6.30
2018-12-04T15:11:38.808Z,6.20
2018-12-04T15:14:05.243Z,6.30
2018-12-04T15:16:31.462Z,6.30
2018-12-04T15:18:57.850Z,6.40
2018-12-04T15:21:24.186Z,6.30
2018-12-04T15:23:51.308Z,6.40
2018-12-04T15:26:17.687Z,6.30
2018-12-04T15:28:43.883Z,6.30
2018-12-04T15:31:10.812Z,6.30
2018-12-04T15:33:37.275Z,6.30
2018-12-04T15:36:03.699Z,6.20
2018-12-04T15:38:30.289Z,6.20
2018-12-04T15:40:56.653Z,6.20
2018-12-04T15:43:22.768Z,6.20
2018-12-04T15:45:49.171Z,6.20
2018-12-04T15:48:15.664Z,6.10
2018-12-04T15:50:41.848Z,6.10
2018-12-04T15:53:08.270Z,6.00
2018-12-04T15:55:35.440Z,6.00
2018-12-04T15:58:03.617Z,5.90
2018-12-04T16:00:30.455Z,5.80
2018-12-04T16:02:56.623Z,5.80
2018-12-04T16:05:23.034Z,5.80
2018-12-04T16:07:49.164Z,5.80
2018-12-04T16:10:15.401Z,5.80
2018-12-04T16:12:42.678Z,5.70
2018-12-04T16:15:09.335Z,5.70
2018-12-04T16:17:36.376Z,5.70
2018-12-04T16:20:04.298Z,5.70
2018-12-04T16:22:30.557Z,5.60
2018-12-04T16:24:56.905Z,5.60
2018-12-04T16:27:23.020Z,5.60
2018-12-04T16:29:50.098Z,5.60
2018-12-04T16:32:17.115Z,5.50
2018-12-04T16:34:44.035Z,5.60
2018-12-04T16:37:10.562Z,5.50
2018-12-04T16:39:36.754Z,5.50
2018-12-04T16:42:03.002Z,5.50
2018-12-04T16:44:29.244Z,5.40
2018-12-04T16:46:55.442Z,5.40
2018-12-04T16:49:21.700Z,5.40
2018-12-04T16:51:48.885Z,5.40
2018-12-04T16:54:15.038Z,5.30
2018-12-04T16:56:41.377Z,5.30
2018-12-04T16:59:08.691Z,5.30
2018-12-04T17:01:34.826Z,5.20
2018-12-04T17:04:01.457Z,5.20
2018-12-04T17:06:27.796Z,5.20
2018-12-04T17:08:54.204Z,5.20
2018-12-04T17:11:20.480Z,5.10
2018-12-04T17:13:46.612Z,5.10
2018-12-04T17:16:13.818Z,5.10
2018-12-04T17:18:40.105Z,5.20
2018-12-04T17:21:06.446Z,5.10
2018-12-04T17:23:32.548Z,5.20
2018-12-04T17:25:59.063Z,5.20
2018-12-04T17:28:25.360Z,5.40
2018-12-04T17:30:52.228Z,5.50
2018-12-04T17:33:19.354Z,5.50
2018-12-04T17:35:46.155Z,5.60
2018-12-04T17:38:13.373Z,5.70
2018-12-04T17:40:39.503Z,5.80
2018-12-04T17:43:06.112Z,5.80
2018-12-04T17:45:32.269Z,5.70
2018-12-04T17:47:58.928Z,5.70
2018-12-04T17:50:25.163Z,5.80
2018-12-04T17:52:51.432Z,5.80
2018-12-04T17:55:17.694Z,5.80
2018-12-04T17:57:44.842Z,6.00
2018-12-04T18:00:12.408Z,6.00
2018-12-04T18:02:40.340Z,6.00
2018-12-04T18:05:07.737Z,6.00
2018-12-04T18:07:34.115Z,5.80
2018-12-04T18:10:00.347Z,5.70
2018-12-04T18:12:26.664Z,5.50
2018-12-04T18:14:52.785Z,5.20
2018-12-04T18:17:19.455Z,5.10
2018-12-04T18:19:46.137Z,5.00
2018-12-04T18:22:14.303Z,4.90
2018-12-04T18:24:41.385Z,4.70
2018-12-04T18:27:07.758Z,4.70
2018-12-04T18:29:35.419Z,4.60
2018-12-04T18:32:02.010Z,4.60
2018-12-04T18:34:28.173Z,4.50
2018-12-04T18:36:55.086Z,4.50
2018-12-04T18:39:21.310Z,4.40
2018-12-04T18:41:47.715Z,4.40
2018-12-04T18:44:14.319Z,4.40
2018-12-04T18:49:19.866Z,4.40
2018-12-04T18:51:46.199Z,4.50
2018-12-04T18:54:12.322Z,4.70
2018-12-04T18:56:38.560Z,4.70
2018-12-04T18:59:04.818Z,4.90
2018-12-04T19:01:31.296Z,5.00
2018-12-04T19:03:58.124Z,5.00
2018-12-04T19:06:24.520Z,4.90
2018-12-04T19:08:50.666Z,5.00
2018-12-04T19:11:17.240Z,5.00
2018-12-04T19:13:43.752Z,5.00
2018-12-04T19:16:10.513Z,5.00
2018-12-04T19:18:36.810Z,5.00
2018-12-04T19:21:05.329Z,5.00
2018-12-04T19:23:31.849Z,5.00
2018-12-04T19:25:58.746Z,5.00
2018-12-04T19:28:25.357Z,5.00
2018-12-04T19:30:51.586Z,5.00
2018-12-04T19:33:18.004Z,5.00
2018-12-04T19:35:45.000Z,5.00
2018-12-04T19:38:11.376Z,5.00
2018-12-04T19:40:37.666Z,4.90
2018-12-04T19:43:04.195Z,4.80
2018-12-04T19:45:30.813Z,4.70
2018-12-04T19:47:57.095Z,4.60
2018-12-04T19:50:23.748Z,4.70
2018-12-04T19:52:50.918Z,4.60
2018-12-04T19:55:17.515Z,4.60
2018-12-04T19:57:43.794Z,4.60
2018-12-04T20:00:10.120Z,4.60
2018-12-04T20:02:36.600Z,4.60
2018-12-04T20:05:03.831Z,4.50
2018-12-04T20:07:30.236Z,4.50
2018-12-04T20:09:56.466Z,4.40
2018-12-04T20:12:23.057Z,4.40
2018-12-04T20:14:49.669Z,4.40
2018-12-04T20:17:16.117Z,4.40
2018-12-04T20:19:42.325Z,4.30
2018-12-04T20:22:08.772Z,4.30
2018-12-04T20:24:35.246Z,4.20
2018-12-04T20:27:01.600Z,4.20
2018-12-04T20:29:27.906Z,4.10
2018-12-04T20:31:54.423Z,4.10
2018-12-04T20:34:20.760Z,4.10
2018-12-04T20:36:47.002Z,4.00
2018-12-04T20:39:13.460Z,4.00
2018-12-04T20:41:40.013Z,3.90
2018-12-04T20:44:06.966Z,3.90
2018-12-04T20:46:33.429Z,3.90
2018-12-04T20:48:59.858Z,3.90
2018-12-04T20:51:26.194Z,3.90
2018-12-04T20:53:52.828Z,3.80
2018-12-04T20:56:19.207Z,3.90
2018-12-04T20:58:46.062Z,3.80
2018-12-04T21:01:12.753Z,3.80
2018-12-04T21:03:39.135Z,3.80
2018-12-04T21:06:05.539Z,3.80
2018-12-04T21:08:31.849Z,3.80
2018-12-04T21:10:58.564Z,3.70
2018-12-04T21:13:25.642Z,3.80
2018-12-04T21:15:52.068Z,3.80
2018-12-04T21:18:18.260Z,3.80
2018-12-04T21:20:45.391Z,3.80
2018-12-04T21:23:11.620Z,3.80
2018-12-04T21:25:38.114Z,3.70
2018-12-04T21:28:10.671Z,3.70
2018-12-04T21:30:43.253Z,3.70
2018-12-04T21:36:18.530Z,3.70
2018-12-04T21:38:50.780Z,3.60
2018-12-04T21:44:08.941Z,3.60
2018-12-04T21:49:43.253Z,3.60
2018-12-04T21:52:09.623Z,3.60
2018-12-04T21:54:36.103Z,3.60
2018-12-04T21:57:02.704Z,3.60
2018-12-04T21:59:29.041Z,3.60
2018-12-04T22:01:55.428Z,3.60
2018-12-04T22:04:22.314Z,3.60
2018-12-04T22:06:48.573Z,3.60
2018-12-04T22:09:14.800Z,3.50
2018-12-04T22:11:41.049Z,3.50
2018-12-04T22:14:07.208Z,3.50
2018-12-04T22:16:33.509Z,3.50
2018-12-04T22:18:59.757Z,3.50
2018-12-04T22:21:25.986Z,3.40
2018-12-04T22:23:52.398Z,3.40
2018-12-04T22:26:18.688Z,3.40
2018-12-04T22:28:44.857Z,3.40
2018-12-04T22:31:11.104Z,3.40
2018-12-04T22:33:37.466Z,3.40
2018-12-04T22:36:03.701Z,3.50
2018-12-04T22:38:29.833Z,3.50
2018-12-04T22:40:56.207Z,3.50
2018-12-04T22:43:22.476Z,3.60
2018-12-04T22:45:48.617Z,3.60
2018-12-04T22:48:14.789Z,3.70
2018-12-04T22:50:40.973Z,3.80
2018-12-04T22:53:07.293Z,3.70
2018-12-04T22:55:33.854Z,3.70
2018-12-04T22:58:00.075Z,3.70
2018-12-04T23:00:29.499Z,3.80
2018-12-04T23:02:55.787Z,3.80
2018-12-04T23:05:21.977Z,3.80
2018-12-04T23:07:48.265Z,3.80
2018-12-04T23:10:14.630Z,3.80
2018-12-04T23:12:40.871Z,3.80
2018-12-04T23:15:07.317Z,3.80
2018-12-04T23:17:33.597Z,3.70
2018-12-04T23:19:59.931Z,3.60
2018-12-04T23:22:26.233Z,3.60
2018-12-04T23:24:52.673Z,3.60
2018-12-04T23:27:18.937Z,3.60
2018-12-04T23:29:45.085Z,3.60
2018-12-04T23:32:11.468Z,3.60
2018-12-04T23:34:37.726Z,3.60
2018-12-04T23:37:04.008Z,3.60
2018-12-04T23:39:30.167Z,3.50
2018-12-04T23:41:56.478Z,3.50
2018-12-04T23:44:24.096Z,3.50
2018-12-04T23:46:50.373Z,3.50
2018-12-04T23:49:16.552Z,3.50
2018-12-04T23:51:42.901Z,3.50
2018-12-04T23:54:09.045Z,3.50
2018-12-04T23:56:35.307Z,3.50
2018-12-04T23:59:01.613Z,3.50
